createdAt,value
2018-11-03T00:04:44.002Z,16.70
2018-11-03T00:20:19.224Z,17.80
2018-11-03T00:35:54.136Z,17.30
2018-11-03T00:51:28.953Z,15.47
2018-11-03T01:07:03.778Z,14.57
2018-11-03T01:22:37.998Z,14.00
2018-11-03T01:38:12.808Z,12.73
2018-11-03T01:53:47.694Z,13.17
2018-11-03T02:09:23.658Z,15.47
2018-11-03T02:24:57.662Z,16.97
2018-11-03T02:40:32.516Z,20.27
2018-11-03T02:56:06.915Z,19.07
2018-11-03T03:11:41.173Z,17.83
2018-11-03T03:27:15.060Z,17.57
2018-11-03T03:42:49.002Z,17.77
2018-11-03T03:58:22.830Z,17.53
2018-11-03T04:13:57.785Z,17.10
2018-11-03T04:29:31.880Z,19.43
2018-11-03T04:45:06.636Z,21.93
2018-11-03T05:00:40.792Z,20.17
2018-11-03T05:16:14.645Z,20.10
2018-11-03T05:31:48.679Z,19.87
2018-11-03T05:47:23.151Z,19.33
2018-11-03T06:02:57.655Z,19.20
2018-11-03T07:53:39.942Z,16.23
2018-11-03T08:08:44.082Z,16.23
2018-11-03T08:23:48.231Z,17.93
2018-11-03T08:38:52.377Z,18.20
2018-11-03T08:53:56.649Z,16.37
2018-11-03T09:09:00.812Z,36.73
2018-11-03T09:24:07.794Z,12.47
2018-11-03T09:39:12.203Z,13.87
2018-11-03T09:54:16.318Z,13.20
2018-11-03T10:09:20.524Z,10.93
2018-11-03T10:24:24.760Z,11.30
2018-11-03T10:39:28.961Z,9.83
2018-11-03T10:54:33.972Z,9.77
2018-11-03T11:09:44.997Z,9.27
2018-11-03T11:24:49.267Z,8.03
2018-11-03T11:39:53.371Z,9.43
2018-11-03T11:54:57.615Z,6.43
2018-11-03T12:10:01.764Z,4.97
2018-11-03T12:25:06.420Z,6.10
2018-11-03T12:40:13.471Z,5.07
2018-11-03T12:55:17.617Z,2.93
2018-11-03T13:10:22.483Z,2.37
2018-11-03T13:25:26.525Z,5.23
2018-11-03T13:40:30.614Z,2.90
2018-11-03T13:55:34.719Z,3.47
2018-11-03T14:10:39.065Z,4.30
2018-11-03T14:25:43.316Z,4.60
2018-11-03T14:40:47.435Z,4.47
2018-11-03T14:55:52.921Z,5.63
2018-11-03T15:10:57.712Z,8.50
2018-11-03T15:26:01.967Z,17.17
2018-11-03T15:41:06.646Z,7.43
2018-11-03T15:56:10.895Z,10.47
2018-11-03T16:11:15.973Z,10.80
2018-11-03T16:26:20.556Z,12.37
2018-11-03T16:41:26.664Z,12.10
2018-11-03T16:56:31.810Z,13.50
2018-11-03T17:11:36.037Z,12.83
2018-11-03T17:26:40.151Z,9.23
2018-11-03T17:41:44.411Z,10.30
2018-11-03T17:56:48.655Z,10.93
2018-11-03T18:11:53.074Z,11.43
2018-11-03T18:26:57.376Z,13.33
2018-11-03T18:42:01.688Z,13.00
2018-11-03T18:57:05.991Z,14.33
2018-11-03T19:12:10.249Z,16.63
2018-11-03T19:27:14.417Z,18.27
2018-11-03T19:42:18.908Z,18.67
2018-11-03T19:57:23.140Z,18.73
2018-11-03T20:12:27.077Z,17.73
2018-11-03T20:27:31.272Z,18.13
2018-11-03T20:42:35.477Z,18.87
2018-11-03T20:57:39.899Z,17.27
2018-11-03T21:12:44.072Z,19.30
2018-11-03T21:27:48.356Z,22.87
2018-11-03T21:42:52.572Z,23.73
2018-11-03T21:57:56.767Z,18.90
2018-11-03T22:13:01.003Z,13.37
2018-11-03T22:28:05.307Z,15.30
2018-11-03T22:43:09.411Z,11.97
2018-11-03T22:58:13.557Z,12.97
2018-11-03T23:13:17.779Z,14.00
2018-11-03T23:28:21.923Z,12.63
2018-11-03T23:43:26.016Z,12.57
2018-11-03T23:58:30.078Z,12.80
